sensor_id;sensor_type;location;lat;lon;timestamp;P1;durP1;ratioP1;P2;durP2;ratioP2
9117;SDS011;4594;50.994;7.126;2022-12-31T00:01:05;1.10;;;1.10;;
9117;SDS011;4594;50.994;7.126;2022-12-31T00:03:33;1.30;;;1.30;;
9117;SDS011;4594;50.994;7.126;2022-12-31T00:05:59;1.10;;;1.10;;
9117;SDS011;4594;50.994;7.126;2022-12-31T00:08:24;1.07;;;1.07;;
9117;SDS011;4594;50.994;7.126;2022-12-31T00:10:50;3.03;;;1.07;;
9117;SDS011;4594;50.994;7.126;2022-12-31T00:13:16;1.20;;;1.10;;
9117;SDS011;4594;50.994;7.126;2022-12-31T00:15:42;1.03;;;1.03;;
9117;SDS011;4594;50.994;7.126;2022-12-31T00:18:08;1.10;;;1.10;;
9117;SDS011;4594;50.994;7.126;2022-12-31T00:20:37;1.00;;;1.00;;
9117;SDS011;4594;50.994;7.126;2022-12-31T00:23:05;0.83;;;0.83;;
9117;SDS011;4594;50.994;7.126;2022-12-31T00:25:33;1.10;;;1.10;;
9117;SDS011;4594;50.994;7.126;2022-12-31T00:28:00;1.17;;;1.17;;
9117;SDS011;4594;50.994;7.126;2022-12-31T00:30:27;0.90;;;0.90;;
9117;SDS011;4594;50.994;7.126;2022-12-31T00:32:52;2.03;;;0.90;;
9117;SDS011;4594;50.994;7.126;2022-12-31T00:35:18;1.00;;;1.00;;
9117;SDS011;4594;50.994;7.126;2022-12-31T00:37:44;1.07;;;1.07;;
9117;SDS011;4594;50.994;7.126;2022-12-31T00:40:09;0.93;;;0.93;;
9117;SDS011;4594;50.994;7.126;2022-12-31T00:42:35;1.07;;;1.07;;
9117;SDS011;4594;50.994;7.126;2022-12-31T00:45:01;0.90;;;0.90;;
9117;SDS011;4594;50.994;7.126;2022-12-31T00:47:27;0.97;;;0.97;;
9117;SDS011;4594;50.994;7.126;2022-12-31T00:49:52;0.80;;;0.80;;
9117;SDS011;4594;50.994;7.126;2022-12-31T00:52:18;1.00;;;0.90;;
9117;SDS011;4594;50.994;7.126;2022-12-31T00:54:44;0.90;;;0.90;;
9117;SDS011;4594;50.994;7.126;2022-12-31T00:57:10;0.90;;;0.90;;
9117;SDS011;4594;50.994;7.126;2022-12-31T00:59:35;1.10;;;1.10;;
9117;SDS011;4594;50.994;7.126;2022-12-31T01:02:01;1.00;;;1.00;;
9117;SDS011;4594;50.994;7.126;2022-12-31T01:04:26;1.00;;;1.00;;
9117;SDS011;4594;50.994;7.126;2022-12-31T01:06:52;1.00;;;1.00;;
9117;SDS011;4594;50.994;7.126;2022-12-31T01:09:18;2.00;;;0.97;;
9117;SDS011;4594;50.994;7.126;2022-12-31T01:11:43;0.87;;;0.87;;
9117;SDS011;4594;50.994;7.126;2022-12-31T01:14:11;0.90;;;0.90;;
9117;SDS011;4594;50.994;7.126;2022-12-31T01:16:41;0.90;;;0.90;;
9117;SDS011;4594;50.994;7.126;2022-12-31T01:19:15;0.90;;;0.90;;
9117;SDS011;4594;50.994;7.126;2022-12-31T01:21:45;0.90;;;0.90;;
9117;SDS011;4594;50.994;7.126;2022-12-31T01:24:12;0.87;;;0.87;;
9117;SDS011;4594;50.994;7.126;2022-12-31T01:26:39;0.83;;;0.83;;
9117;SDS011;4594;50.994;7.126;2022-12-31T01:29:05;0.80;;;0.80;;
9117;SDS011;4594;50.994;7.126;2022-12-31T01:31:33;1.00;;;0.90;;
9117;SDS011;4594;50.994;7.126;2022-12-31T01:34:01;0.90;;;0.90;;
9117;SDS011;4594;50.994;7.126;2022-12-31T01:36:29;1.60;;;0.90;;
9117;SDS011;4594;50.994;7.126;2022-12-31T01:38:58;0.80;;;0.80;;
9117;SDS011;4594;50.994;7.126;2022-12-31T01:41:27;0.80;;;0.80;;
9117;SDS011;4594;50.994;7.126;2022-12-31T01:43:58;0.80;;;0.80;;
9117;SDS011;4594;50.994;7.126;2022-12-31T01:48:59;0.80;;;0.80;;
9117;SDS011;4594;50.994;7.126;2022-12-31T01:51:34;0.80;;;0.80;;
9117;SDS011;4594;50.994;7.126;2022-12-31T01:54:02;0.77;;;0.77;;
9117;SDS011;4594;50.994;7.126;2022-12-31T01:56:33;1.13;;;0.80;;
9117;SDS011;4594;50.994;7.126;2022-12-31T01:59:02;0.80;;;0.80;;
9117;SDS011;4594;50.994;7.126;2022-12-31T02:01:31;0.70;;;0.70;;
9117;SDS011;4594;50.994;7.126;2022-12-31T02:04:01;0.77;;;0.77;;
9117;SDS011;4594;50.994;7.126;2022-12-31T02:06:47;0.77;;;0.77;;
9117;SDS011;4594;50.994;7.126;2022-12-31T02:09:20;0.70;;;0.70;;
9117;SDS011;4594;50.994;7.126;2022-12-31T02:11:46;0.73;;;0.73;;
9117;SDS011;4594;50.994;7.126;2022-12-31T02:14:16;0.60;;;0.60;;
9117;SDS011;4594;50.994;7.126;2022-12-31T02:20:11;0.70;;;0.70;;
9117;SDS011;4594;50.994;7.126;2022-12-31T02:31:44;0.60;;;0.60;;
9117;SDS011;4594;50.994;7.126;2022-12-31T02:34:26;0.60;;;0.60;;
9117;SDS011;4594;50.994;7.126;2022-12-31T02:36:59;0.60;;;0.60;;
9117;SDS011;4594;50.994;7.126;2022-12-31T02:39:32;0.60;;;0.60;;
9117;SDS011;4594;50.994;7.126;2022-12-31T02:42:00;2.13;;;0.60;;
9117;SDS011;4594;50.994;7.126;2022-12-31T02:52:31;0.63;;;0.63;;
9117;SDS011;4594;50.994;7.126;2022-12-31T02:55:49;0.60;;;0.60;;
9117;SDS011;4594;50.994;7.126;2022-12-31T03:01:41;0.60;;;0.60;;
9117;SDS011;4594;50.994;7.126;2022-12-31T03:04:31;0.60;;;0.60;;
9117;SDS011;4594;50.994;7.126;2022-12-31T03:07:02;0.63;;;0.63;;
9117;SDS011;4594;50.994;7.126;2022-12-31T03:09:33;0.60;;;0.60;;
9117;SDS011;4594;50.994;7.126;2022-12-31T03:12:00;0.73;;;0.73;;
9117;SDS011;4594;50.994;7.126;2022-12-31T03:14:47;0.70;;;0.70;;
9117;SDS011;4594;50.994;7.126;2022-12-31T03:17:12;0.80;;;0.80;;
9117;SDS011;4594;50.994;7.126;2022-12-31T03:19:38;0.77;;;0.77;;
9117;SDS011;4594;50.994;7.126;2022-12-31T03:22:22;0.67;;;0.67;;
9117;SDS011;4594;50.994;7.126;2022-12-31T03:27:53;0.70;;;0.70;;
9117;SDS011;4594;50.994;7.126;2022-12-31T03:30:21;0.70;;;0.70;;
9117;SDS011;4594;50.994;7.126;2022-12-31T03:32:49;0.70;;;0.70;;
9117;SDS011;4594;50.994;7.126;2022-12-31T03:35:16;0.70;;;0.70;;
9117;SDS011;4594;50.994;7.126;2022-12-31T03:37:44;0.70;;;0.70;;
9117;SDS011;4594;50.994;7.126;2022-12-31T03:40:12;0.70;;;0.70;;
9117;SDS011;4594;50.994;7.126;2022-12-31T03:42:40;0.70;;;0.70;;
9117;SDS011;4594;50.994;7.126;2022-12-31T03:45:06;0.70;;;0.70;;
9117;SDS011;4594;50.994;7.126;2022-12-31T03:47:33;0.70;;;0.70;;
9117;SDS011;4594;50.994;7.126;2022-12-31T03:50:00;0.60;;;0.60;;
9117;SDS011;4594;50.994;7.126;2022-12-31T03:52:26;0.60;;;0.60;;
9117;SDS011;4594;50.994;7.126;2022-12-31T03:54:51;0.80;;;0.80;;
9117;SDS011;4594;50.994;7.126;2022-12-31T03:57:17;0.63;;;0.63;;
9117;SDS011;4594;50.994;7.126;2022-12-31T03:59:43;0.60;;;0.60;;
9117;SDS011;4594;50.994;7.126;2022-12-31T04:02:08;0.80;;;0.80;;
9117;SDS011;4594;50.994;7.126;2022-12-31T04:04:34;0.60;;;0.60;;
9117;SDS011;4594;50.994;7.126;2022-12-31T04:07:00;0.70;;;0.70;;
9117;SDS011;4594;50.994;7.126;2022-12-31T04:09:26;0.70;;;0.70;;
9117;SDS011;4594;50.994;7.126;2022-12-31T04:11:51;0.70;;;0.70;;
9117;SDS011;4594;50.994;7.126;2022-12-31T04:14:17;0.70;;;0.70;;
9117;SDS011;4594;50.994;7.126;2022-12-31T04:16:43;0.60;;;0.60;;
9117;SDS011;4594;50.994;7.126;2022-12-31T04:19:09;0.70;;;0.70;;
9117;SDS011;4594;50.994;7.126;2022-12-31T04:21:36;0.70;;;0.70;;
9117;SDS011;4594;50.994;7.126;2022-12-31T04:24:02;0.70;;;0.70;;
9117;SDS011;4594;50.994;7.126;2022-12-31T04:26:28;0.67;;;0.67;;
9117;SDS011;4594;50.994;7.126;2022-12-31T04:28:54;0.70;;;0.70;;
9117;SDS011;4594;50.994;7.126;2022-12-31T04:31:20;0.70;;;0.70;;
9117;SDS011;4594;50.994;7.126;2022-12-31T04:33:46;0.60;;;0.60;;
9117;SDS011;4594;50.994;7.126;2022-12-31T04:36:12;1.63;;;0.97;;
9117;SDS011;4594;50.994;7.126;2022-12-31T04:38:38;0.90;;;0.90;;
9117;SDS011;4594;50.994;7.126;2022-12-31T04:41:03;0.60;;;0.60;;
9117;SDS011;4594;50.994;7.126;2022-12-31T04:43:46;0.60;;;0.60;;
9117;SDS011;4594;50.994;7.126;2022-12-31T04:46:15;0.60;;;0.60;;
9117;SDS011;4594;50.994;7.126;2022-12-31T04:48:45;0.70;;;0.70;;
9117;SDS011;4594;50.994;7.126;2022-12-31T04:51:11;2.27;;;0.90;;
9117;SDS011;4594;50.994;7.126;2022-12-31T04:53:37;0.60;;;0.60;;
9117;SDS011;4594;50.994;7.126;2022-12-31T04:56:03;0.70;;;0.70;;
9117;SDS011;4594;50.994;7.126;2022-12-31T04:58:30;0.70;;;0.70;;
9117;SDS011;4594;50.994;7.126;2022-12-31T05:00:56;0.60;;;0.60;;
9117;SDS011;4594;50.994;7.126;2022-12-31T05:03:23;0.90;;;0.90;;
9117;SDS011;4594;50.994;7.126;2022-12-31T05:05:50;0.60;;;0.60;;
9117;SDS011;4594;50.994;7.126;2022-12-31T05:08:17;0.70;;;0.70;;
9117;SDS011;4594;50.994;7.126;2022-12-31T05:10:44;0.70;;;0.70;;
9117;SDS011;4594;50.994;7.126;2022-12-31T05:13:12;0.67;;;0.67;;
9117;SDS011;4594;50.994;7.126;2022-12-31T05:15:39;0.70;;;0.70;;
9117;SDS011;4594;50.994;7.126;2022-12-31T05:18:06;0.70;;;0.70;;
9117;SDS011;4594;50.994;7.126;2022-12-31T05:20:33;0.80;;;0.80;;
9117;SDS011;4594;50.994;7.126;2022-12-31T05:22:59;0.60;;;0.60;;
9117;SDS011;4594;50.994;7.126;2022-12-31T05:25:25;0.60;;;0.60;;
9117;SDS011;4594;50.994;7.126;2022-12-31T05:27:51;0.80;;;0.80;;
9117;SDS011;4594;50.994;7.126;2022-12-31T05:30:17;0.77;;;0.77;;
9117;SDS011;4594;50.994;7.126;2022-12-31T05:32:44;0.70;;;0.70;;
9117;SDS011;4594;50.994;7.126;2022-12-31T05:35:10;0.67;;;0.67;;
9117;SDS011;4594;50.994;7.126;2022-12-31T05:37:37;0.80;;;0.80;;
9117;SDS011;4594;50.994;7.126;2022-12-31T05:40:03;0.60;;;0.60;;
9117;SDS011;4594;50.994;7.126;2022-12-31T05:42:30;0.80;;;0.80;;
9117;SDS011;4594;50.994;7.126;2022-12-31T05:44:56;0.87;;;0.73;;
9117;SDS011;4594;50.994;7.126;2022-12-31T05:47:21;1.60;;;0.60;;
9117;SDS011;4594;50.994;7.126;2022-12-31T05:49:47;0.70;;;0.70;;
9117;SDS011;4594;50.994;7.126;2022-12-31T05:52:13;1.27;;;0.80;;
9117;SDS011;4594;50.994;7.126;2022-12-31T05:54:39;0.87;;;0.87;;
9117;SDS011;4594;50.994;7.126;2022-12-31T05:57:06;1.73;;;0.90;;
9117;SDS011;4594;50.994;7.126;2022-12-31T05:59:31;0.70;;;0.70;;
9117;SDS011;4594;50.994;7.126;2022-12-31T06:01:58;0.93;;;0.93;;
9117;SDS011;4594;50.994;7.126;2022-12-31T06:04:24;0.87;;;0.87;;
9117;SDS011;4594;50.994;7.126;2022-12-31T06:06:50;0.83;;;0.83;;
9117;SDS011;4594;50.994;7.126;2022-12-31T06:09:16;1.20;;;0.90;;
9117;SDS011;4594;50.994;7.126;2022-12-31T06:11:44;1.80;;;0.77;;
9117;SDS011;4594;50.994;7.126;2022-12-31T06:14:11;2.53;;;0.80;;
9117;SDS011;4594;50.994;7.126;2022-12-31T06:16:37;0.80;;;0.80;;
9117;SDS011;4594;50.994;7.126;2022-12-31T06:19:04;0.70;;;0.70;;
9117;SDS011;4594;50.994;7.126;2022-12-31T06:21:30;1.00;;;0.90;;
9117;SDS011;4594;50.994;7.126;2022-12-31T06:23:56;0.90;;;0.90;;
9117;SDS011;4594;50.994;7.126;2022-12-31T06:26:22;0.90;;;0.90;;
9117;SDS011;4594;50.994;7.126;2022-12-31T06:28:49;0.80;;;0.80;;
9117;SDS011;4594;50.994;7.126;2022-12-31T06:31:15;0.97;;;0.97;;
9117;SDS011;4594;50.994;7.126;2022-12-31T06:33:41;1.03;;;1.03;;
9117;SDS011;4594;50.994;7.126;2022-12-31T06:36:09;0.80;;;0.80;;
9117;SDS011;4594;50.994;7.126;2022-12-31T06:38:39;1.43;;;1.10;;
9117;SDS011;4594;50.994;7.126;2022-12-31T06:41:07;1.30;;;1.23;;
9117;SDS011;4594;50.994;7.126;2022-12-31T06:43:36;1.03;;;0.90;;
9117;SDS011;4594;50.994;7.126;2022-12-31T06:46:05;1.67;;;0.90;;
9117;SDS011;4594;50.994;7.126;2022-12-31T06:48:34;0.90;;;0.70;;
9117;SDS011;4594;50.994;7.126;2022-12-31T06:51:04;0.93;;;0.87;;
9117;SDS011;4594;50.994;7.126;2022-12-31T06:53:32;1.00;;;1.00;;
9117;SDS011;4594;50.994;7.126;2022-12-31T06:56:08;0.80;;;0.80;;
9117;SDS011;4594;50.994;7.126;2022-12-31T06:58:44;1.00;;;1.00;;
9117;SDS011;4594;50.994;7.126;2022-12-31T07:06:15;0.80;;;0.80;;
9117;SDS011;4594;50.994;7.126;2022-12-31T07:09:04;1.37;;;1.00;;
9117;SDS011;4594;50.994;7.126;2022-12-31T07:18:37;2.03;;;0.87;;
9117;SDS011;4594;50.994;7.126;2022-12-31T07:21:21;1.07;;;1.00;;
9117;SDS011;4594;50.994;7.126;2022-12-31T07:24:01;1.13;;;0.70;;
9117;SDS011;4594;50.994;7.126;2022-12-31T07:29:47;0.90;;;0.90;;
9117;SDS011;4594;50.994;7.126;2022-12-31T07:38:35;0.87;;;0.87;;
9117;SDS011;4594;50.994;7.126;2022-12-31T07:44:17;0.90;;;0.90;;
9117;SDS011;4594;50.994;7.126;2022-12-31T07:47:03;1.03;;;0.90;;
9117;SDS011;4594;50.994;7.126;2022-12-31T07:49:43;1.10;;;1.10;;
9117;SDS011;4594;50.994;7.126;2022-12-31T07:52:09;1.80;;;0.80;;
9117;SDS011;4594;50.994;7.126;2022-12-31T07:54:35;1.03;;;1.03;;
9117;SDS011;4594;50.994;7.126;2022-12-31T07:57:00;0.80;;;0.80;;
9117;SDS011;4594;50.994;7.126;2022-12-31T07:59:40;1.20;;;1.10;;
9117;SDS011;4594;50.994;7.126;2022-12-31T08:02:47;2.43;;;0.87;;
9117;SDS011;4594;50.994;7.126;2022-12-31T08:13:59;0.73;;;0.73;;
9117;SDS011;4594;50.994;7.126;2022-12-31T08:16:26;1.10;;;1.10;;
9117;SDS011;4594;50.994;7.126;2022-12-31T08:18:53;0.97;;;0.93;;
9117;SDS011;4594;50.994;7.126;2022-12-31T08:24:23;0.80;;;0.80;;
9117;SDS011;4594;50.994;7.126;2022-12-31T08:30:18;1.00;;;1.00;;
9117;SDS011;4594;50.994;7.126;2022-12-31T08:38:53;1.10;;;1.10;;
9117;SDS011;4594;50.994;7.126;2022-12-31T08:41:48;1.00;;;1.00;;
9117;SDS011;4594;50.994;7.126;2022-12-31T08:44:22;1.13;;;1.07;;
9117;SDS011;4594;50.994;7.126;2022-12-31T08:49:56;1.10;;;0.97;;
9117;SDS011;4594;50.994;7.126;2022-12-31T08:52:23;1.10;;;1.10;;
9117;SDS011;4594;50.994;7.126;2022-12-31T08:54:51;2.23;;;1.20;;
9117;SDS011;4594;50.994;7.126;2022-12-31T09:00:31;1.03;;;1.03;;
9117;SDS011;4594;50.994;7.126;2022-12-31T09:03:13;1.10;;;1.10;;
9117;SDS011;4594;50.994;7.126;2022-12-31T09:06:18;1.50;;;1.30;;
9117;SDS011;4594;50.994;7.126;2022-12-31T09:09:03;0.93;;;0.93;;
9117;SDS011;4594;50.994;7.126;2022-12-31T09:14:23;1.20;;;1.10;;
9117;SDS011;4594;50.994;7.126;2022-12-31T09:22:53;3.67;;;1.17;;
9117;SDS011;4594;50.994;7.126;2022-12-31T09:25:20;1.07;;;1.07;;
9117;SDS011;4594;50.994;7.126;2022-12-31T09:31:30;1.90;;;1.00;;
9117;SDS011;4594;50.994;7.126;2022-12-31T09:34:23;1.07;;;1.07;;
9117;SDS011;4594;50.994;7.126;2022-12-31T09:37:19;1.00;;;1.00;;
9117;SDS011;4594;50.994;7.126;2022-12-31T09:40:22;0.90;;;0.90;;
9117;SDS011;4594;50.994;7.126;2022-12-31T09:48:39;1.10;;;1.10;;
9117;SDS011;4594;50.994;7.126;2022-12-31T09:51:28;1.17;;;1.07;;
9117;SDS011;4594;50.994;7.126;2022-12-31T09:54:24;2.10;;;1.33;;
9117;SDS011;4594;50.994;7.126;2022-12-31T09:57:20;1.80;;;1.30;;
9117;SDS011;4594;50.994;7.126;2022-12-31T10:05:49;1.60;;;1.20;;
9117;SDS011;4594;50.994;7.126;2022-12-31T10:09:00;1.03;;;0.97;;
9117;SDS011;4594;50.994;7.126;2022-12-31T10:11:58;2.50;;;1.20;;
9117;SDS011;4594;50.994;7.126;2022-12-31T10:20:29;1.23;;;1.07;;
9117;SDS011;4594;50.994;7.126;2022-12-31T10:23:25;1.70;;;1.37;;
9117;SDS011;4594;50.994;7.126;2022-12-31T10:26:43;1.13;;;1.13;;
9117;SDS011;4594;50.994;7.126;2022-12-31T10:32:42;1.00;;;1.00;;
9117;SDS011;4594;50.994;7.126;2022-12-31T10:42:22;1.70;;;1.27;;
9117;SDS011;4594;50.994;7.126;2022-12-31T11:04:02;2.47;;;1.40;;
9117;SDS011;4594;50.994;7.126;2022-12-31T11:26:10;1.27;;;1.27;;
9117;SDS011;4594;50.994;7.126;2022-12-31T11:31:49;1.20;;;1.20;;
9117;SDS011;4594;50.994;7.126;2022-12-31T11:46:23;1.83;;;1.13;;
9117;SDS011;4594;50.994;7.126;2022-12-31T11:55:16;1.37;;;1.23;;
9117;SDS011;4594;50.994;7.126;2022-12-31T11:58:21;1.47;;;1.30;;
9117;SDS011;4594;50.994;7.126;2022-12-31T12:00:55;1.97;;;1.50;;
9117;SDS011;4594;50.994;7.126;2022-12-31T12:03:21;3.57;;;1.77;;
9117;SDS011;4594;50.994;7.126;2022-12-31T12:05:48;1.53;;;1.43;;
9117;SDS011;4594;50.994;7.126;2022-12-31T12:08:14;2.40;;;1.20;;
9117;SDS011;4594;50.994;7.126;2022-12-31T12:10:45;1.37;;;1.27;;
9117;SDS011;4594;50.994;7.126;2022-12-31T12:15:50;6.13;;;2.77;;
9117;SDS011;4594;50.994;7.126;2022-12-31T12:21:16;3.30;;;2.67;;
9117;SDS011;4594;50.994;7.126;2022-12-31T12:23:53;3.47;;;2.30;;
9117;SDS011;4594;50.994;7.126;2022-12-31T12:26:34;2.53;;;1.83;;
9117;SDS011;4594;50.994;7.126;2022-12-31T12:29:11;1.77;;;1.60;;
9117;SDS011;4594;50.994;7.126;2022-12-31T12:31:55;2.07;;;1.63;;
9117;SDS011;4594;50.994;7.126;2022-12-31T12:34:41;2.27;;;1.40;;
9117;SDS011;4594;50.994;7.126;2022-12-31T12:39:54;1.47;;;1.20;;
9117;SDS011;4594;50.994;7.126;2022-12-31T12:42:28;5.37;;;1.50;;
9117;SDS011;4594;50.994;7.126;2022-12-31T12:45:01;3.03;;;1.90;;
9117;SDS011;4594;50.994;7.126;2022-12-31T12:47:31;3.87;;;2.40;;
9117;SDS011;4594;50.994;7.126;2022-12-31T12:49:58;3.10;;;2.50;;
9117;SDS011;4594;50.994;7.126;2022-12-31T13:04:13;7.47;;;4.10;;
9117;SDS011;4594;50.994;7.126;2022-12-31T13:07:08;12.43;;;6.40;;
9117;SDS011;4594;50.994;7.126;2022-12-31T13:12:40;3.57;;;3.10;;
9117;SDS011;4594;50.994;7.126;2022-12-31T13:15:24;3.87;;;2.53;;
9117;SDS011;4594;50.994;7.126;2022-12-31T13:21:39;4.30;;;3.03;;
9117;SDS011;4594;50.994;7.126;2022-12-31T13:29:57;4.20;;;2.50;;
9117;SDS011;4594;50.994;7.126;2022-12-31T13:33:10;1.97;;;1.87;;
9117;SDS011;4594;50.994;7.126;2022-12-31T13:41:31;2.00;;;1.60;;
9117;SDS011;4594;50.994;7.126;2022-12-31T13:46:59;4.93;;;2.30;;
9117;SDS011;4594;50.994;7.126;2022-12-31T13:49:49;5.97;;;4.97;;
9117;SDS011;4594;50.994;7.126;2022-12-31T13:52:28;10.77;;;6.70;;
9117;SDS011;4594;50.994;7.126;2022-12-31T13:58:22;13.13;;;7.17;;
9117;SDS011;4594;50.994;7.126;2022-12-31T14:01:21;8.43;;;4.90;;
9117;SDS011;4594;50.994;7.126;2022-12-31T14:07:00;11.63;;;7.40;;
9117;SDS011;4594;50.994;7.126;2022-12-31T14:09:38;13.77;;;7.97;;
9117;SDS011;4594;50.994;7.126;2022-12-31T14:12:20;11.67;;;6.23;;
9117;SDS011;4594;50.994;7.126;2022-12-31T14:15:38;6.90;;;3.83;;
9117;SDS011;4594;50.994;7.126;2022-12-31T14:18:22;8.57;;;5.27;;
9117;SDS011;4594;50.994;7.126;2022-12-31T14:21:13;5.77;;;3.87;;
9117;SDS011;4594;50.994;7.126;2022-12-31T14:24:06;6.57;;;4.00;;
9117;SDS011;4594;50.994;7.126;2022-12-31T14:26:56;6.60;;;5.30;;
9117;SDS011;4594;50.994;7.126;2022-12-31T14:32:17;2.80;;;2.60;;
9117;SDS011;4594;50.994;7.126;2022-12-31T14:35:25;2.03;;;1.83;;
9117;SDS011;4594;50.994;7.126;2022-12-31T14:41:08;3.53;;;2.40;;
9117;SDS011;4594;50.994;7.126;2022-12-31T14:44:18;4.43;;;2.73;;
9117;SDS011;4594;50.994;7.126;2022-12-31T14:52:33;17.03;;;8.47;;
9117;SDS011;4594;50.994;7.126;2022-12-31T14:57:42;6.00;;;4.40;;
9117;SDS011;4594;50.994;7.126;2022-12-31T15:00:26;4.80;;;3.43;;
9117;SDS011;4594;50.994;7.126;2022-12-31T15:03:31;5.80;;;2.57;;
9117;SDS011;4594;50.994;7.126;2022-12-31T15:06:15;2.53;;;2.23;;
9117;SDS011;4594;50.994;7.126;2022-12-31T15:08:55;2.87;;;2.23;;
9117;SDS011;4594;50.994;7.126;2022-12-31T15:14:26;3.03;;;2.30;;
9117;SDS011;4594;50.994;7.126;2022-12-31T15:17:21;2.00;;;1.90;;
9117;SDS011;4594;50.994;7.126;2022-12-31T15:22:48;2.07;;;1.77;;
9117;SDS011;4594;50.994;7.126;2022-12-31T15:25:31;2.40;;;1.80;;
9117;SDS011;4594;50.994;7.126;2022-12-31T15:28:21;2.27;;;2.07;;
9117;SDS011;4594;50.994;7.126;2022-12-31T15:31:22;3.53;;;2.00;;
9117;SDS011;4594;50.994;7.126;2022-12-31T15:34:01;2.00;;;1.90;;
9117;SDS011;4594;50.994;7.126;2022-12-31T15:36:50;1.40;;;1.40;;
9117;SDS011;4594;50.994;7.126;2022-12-31T15:39:35;2.47;;;2.10;;
9117;SDS011;4594;50.994;7.126;2022-12-31T15:42:20;2.97;;;1.93;;
9117;SDS011;4594;50.994;7.126;2022-12-31T15:45:09;1.70;;;1.60;;
9117;SDS011;4594;50.994;7.126;2022-12-31T15:47:47;3.03;;;2.73;;
9117;SDS011;4594;50.994;7.126;2022-12-31T15:50:22;2.20;;;2.10;;
9117;SDS011;4594;50.994;7.126;2022-12-31T15:58:17;5.03;;;3.27;;
9117;SDS011;4594;50.994;7.126;2022-12-31T16:01:00;5.63;;;3.03;;
9117;SDS011;4594;50.994;7.126;2022-12-31T16:03:56;5.87;;;3.40;;
9117;SDS011;4594;50.994;7.126;2022-12-31T16:06:27;5.23;;;3.03;;
9117;SDS011;4594;50.994;7.126;2022-12-31T16:08:57;4.10;;;3.17;;
9117;SDS011;4594;50.994;7.126;2022-12-31T16:11:24;8.50;;;5.10;;
9117;SDS011;4594;50.994;7.126;2022-12-31T16:13:54;15.47;;;7.60;;
9117;SDS011;4594;50.994;7.126;2022-12-31T16:18:56;6.93;;;4.60;;
9117;SDS011;4594;50.994;7.126;2022-12-31T16:21:30;10.27;;;5.27;;
9117;SDS011;4594;50.994;7.126;2022-12-31T16:24:02;6.77;;;4.53;;
9117;SDS011;4594;50.994;7.126;2022-12-31T16:26:47;4.00;;;3.00;;
9117;SDS011;4594;50.994;7.126;2022-12-31T16:29:18;4.03;;;2.70;;
9117;SDS011;4594;50.994;7.126;2022-12-31T16:31:47;3.07;;;2.70;;
9117;SDS011;4594;50.994;7.126;2022-12-31T16:34:23;4.77;;;3.27;;
9117;SDS011;4594;50.994;7.126;2022-12-31T16:36:58;5.97;;;3.60;;
9117;SDS011;4594;50.994;7.126;2022-12-31T16:40:07;4.73;;;2.47;;
9117;SDS011;4594;50.994;7.126;2022-12-31T16:42:41;2.43;;;2.20;;
9117;SDS011;4594;50.994;7.126;2022-12-31T16:45:43;2.73;;;2.10;;
9117;SDS011;4594;50.994;7.126;2022-12-31T16:48:06;2.37;;;2.20;;
9117;SDS011;4594;50.994;7.126;2022-12-31T16:50:42;4.20;;;2.40;;
9117;SDS011;4594;50.994;7.126;2022-12-31T16:53:11;6.17;;;2.60;;
9117;SDS011;4594;50.994;7.126;2022-12-31T16:55:43;2.50;;;2.30;;
9117;SDS011;4594;50.994;7.126;2022-12-31T16:58:32;3.03;;;2.80;;
9117;SDS011;4594;50.994;7.126;2022-12-31T17:01:16;3.00;;;2.70;;
9117;SDS011;4594;50.994;7.126;2022-12-31T17:03:48;3.77;;;3.43;;
9117;SDS011;4594;50.994;7.126;2022-12-31T17:06:22;4.73;;;3.07;;
9117;SDS011;4594;50.994;7.126;2022-12-31T17:11:33;10.53;;;5.37;;
9117;SDS011;4594;50.994;7.126;2022-12-31T17:16:34;6.30;;;4.47;;
9117;SDS011;4594;50.994;7.126;2022-12-31T17:19:06;8.63;;;6.10;;
9117;SDS011;4594;50.994;7.126;2022-12-31T17:22:02;8.77;;;5.47;;
9117;SDS011;4594;50.994;7.126;2022-12-31T17:24:34;5.10;;;4.10;;
9117;SDS011;4594;50.994;7.126;2022-12-31T17:27:02;4.10;;;3.70;;
9117;SDS011;4594;50.994;7.126;2022-12-31T17:29:31;6.00;;;3.07;;
9117;SDS011;4594;50.994;7.126;2022-12-31T17:31:59;4.60;;;3.23;;
9117;SDS011;4594;50.994;7.126;2022-12-31T17:34:37;3.47;;;2.60;;
9117;SDS011;4594;50.994;7.126;2022-12-31T17:37:15;2.93;;;2.73;;
9117;SDS011;4594;50.994;7.126;2022-12-31T17:39:52;4.37;;;3.43;;
9117;SDS011;4594;50.994;7.126;2022-12-31T17:44:59;9.53;;;5.80;;
9117;SDS011;4594;50.994;7.126;2022-12-31T17:47:33;5.70;;;3.60;;
9117;SDS011;4594;50.994;7.126;2022-12-31T17:50:16;3.13;;;2.80;;
9117;SDS011;4594;50.994;7.126;2022-12-31T17:52:44;3.17;;;2.83;;
9117;SDS011;4594;50.994;7.126;2022-12-31T17:55:11;10.83;;;6.03;;
9117;SDS011;4594;50.994;7.126;2022-12-31T17:57:39;5.03;;;3.90;;
9117;SDS011;4594;50.994;7.126;2022-12-31T18:00:20;6.80;;;3.43;;
9117;SDS011;4594;50.994;7.126;2022-12-31T18:02:49;7.43;;;5.07;;
9117;SDS011;4594;50.994;7.126;2022-12-31T18:05:16;15.13;;;5.73;;
9117;SDS011;4594;50.994;7.126;2022-12-31T18:07:47;10.60;;;4.80;;
9117;SDS011;4594;50.994;7.126;2022-12-31T18:10:13;6.30;;;3.87;;
9117;SDS011;4594;50.994;7.126;2022-12-31T18:12:43;3.80;;;3.40;;
9117;SDS011;4594;50.994;7.126;2022-12-31T18:15:15;6.27;;;4.07;;
9117;SDS011;4594;50.994;7.126;2022-12-31T18:17:44;5.00;;;3.00;;
9117;SDS011;4594;50.994;7.126;2022-12-31T18:20:10;5.77;;;3.97;;
9117;SDS011;4594;50.994;7.126;2022-12-31T18:22:37;8.80;;;4.80;;
9117;SDS011;4594;50.994;7.126;2022-12-31T18:25:05;13.40;;;7.83;;
9117;SDS011;4594;50.994;7.126;2022-12-31T18:27:31;10.20;;;6.70;;
9117;SDS011;4594;50.994;7.126;2022-12-31T18:29:58;6.73;;;4.30;;
9117;SDS011;4594;50.994;7.126;2022-12-31T18:32:26;4.83;;;3.40;;
9117;SDS011;4594;50.994;7.126;2022-12-31T18:34:56;2.60;;;2.40;;
9117;SDS011;4594;50.994;7.126;2022-12-31T18:37:23;5.63;;;2.63;;
9117;SDS011;4594;50.994;7.126;2022-12-31T18:39:49;5.43;;;2.57;;
9117;SDS011;4594;50.994;7.126;2022-12-31T18:42:15;3.03;;;2.50;;
9117;SDS011;4594;50.994;7.126;2022-12-31T18:44:43;3.70;;;2.30;;
9117;SDS011;4594;50.994;7.126;2022-12-31T18:47:17;4.53;;;2.30;;
9117;SDS011;4594;50.994;7.126;2022-12-31T18:49:47;3.27;;;2.20;;
9117;SDS011;4594;50.994;7.126;2022-12-31T18:52:14;8.47;;;3.00;;
9117;SDS011;4594;50.994;7.126;2022-12-31T18:54:45;2.97;;;2.13;;
9117;SDS011;4594;50.994;7.126;2022-12-31T18:57:12;2.67;;;2.40;;
9117;SDS011;4594;50.994;7.126;2022-12-31T18:59:40;2.50;;;2.30;;
9117;SDS011;4594;50.994;7.126;2022-12-31T19:02:16;4.13;;;2.70;;
9117;SDS011;4594;50.994;7.126;2022-12-31T19:04:45;4.20;;;2.90;;
9117;SDS011;4594;50.994;7.126;2022-12-31T19:07:11;5.17;;;2.37;;
9117;SDS011;4594;50.994;7.126;2022-12-31T19:09:37;5.87;;;2.60;;
9117;SDS011;4594;50.994;7.126;2022-12-31T19:12:02;2.73;;;2.50;;
9117;SDS011;4594;50.994;7.126;2022-12-31T19:14:30;3.77;;;2.33;;
9117;SDS011;4594;50.994;7.126;2022-12-31T19:16:56;6.43;;;3.83;;
9117;SDS011;4594;50.994;7.126;2022-12-31T19:19:33;4.10;;;3.20;;
9117;SDS011;4594;50.994;7.126;2022-12-31T19:21:59;2.93;;;2.63;;
9117;SDS011;4594;50.994;7.126;2022-12-31T19:27:05;7.30;;;3.70;;
9117;SDS011;4594;50.994;7.126;2022-12-31T19:29:33;6.23;;;3.03;;
9117;SDS011;4594;50.994;7.126;2022-12-31T19:31:59;3.60;;;2.63;;
9117;SDS011;4594;50.994;7.126;2022-12-31T19:34:27;2.47;;;2.27;;
9117;SDS011;4594;50.994;7.126;2022-12-31T19:36:53;4.00;;;2.33;;
9117;SDS011;4594;50.994;7.126;2022-12-31T19:39:19;3.43;;;2.83;;
9117;SDS011;4594;50.994;7.126;2022-12-31T19:41:45;2.80;;;2.60;;
9117;SDS011;4594;50.994;7.126;2022-12-31T19:44:15;2.77;;;2.57;;
9117;SDS011;4594;50.994;7.126;2022-12-31T19:46:43;3.53;;;2.43;;
9117;SDS011;4594;50.994;7.126;2022-12-31T19:49:11;3.47;;;2.50;;
9117;SDS011;4594;50.994;7.126;2022-12-31T19:51:38;2.57;;;2.37;;
9117;SDS011;4594;50.994;7.126;2022-12-31T19:54:04;2.43;;;2.23;;
9117;SDS011;4594;50.994;7.126;2022-12-31T19:56:31;5.00;;;2.67;;
9117;SDS011;4594;50.994;7.126;2022-12-31T19:58:56;3.10;;;2.47;;
9117;SDS011;4594;50.994;7.126;2022-12-31T20:01:23;3.97;;;2.57;;
9117;SDS011;4594;50.994;7.126;2022-12-31T20:03:49;3.67;;;2.27;;
9117;SDS011;4594;50.994;7.126;2022-12-31T20:06:16;3.83;;;3.27;;
9117;SDS011;4594;50.994;7.126;2022-12-31T20:08:43;3.53;;;2.53;;
9117;SDS011;4594;50.994;7.126;2022-12-31T20:11:11;2.47;;;2.27;;
9117;SDS011;4594;50.994;7.126;2022-12-31T20:13:40;3.30;;;2.20;;
9117;SDS011;4594;50.994;7.126;2022-12-31T20:16:10;5.37;;;2.70;;
9117;SDS011;4594;50.994;7.126;2022-12-31T20:18:39;2.40;;;2.10;;